Terminal Aerodrome Forecast
Issued by NWS Sioux Falls, SD

Home | Current Version | Previous Version | Graphics & Text | Print | Product List | Glossary On
Versions: 1 2 3 4 5 6 7 8 9 10 11 12 13 14 15 16 17 18 19 20
000
FTUS43 KFSD 262320
TAFHON
TAF
KHON 262320Z 2700/2724 35007KT P6SM BKN100
     FM270400 VRB03KT P6SM BKN100
     FM271500 13008KT P6SM BKN080
     FM271900 14010KT P6SM OVC040=

USA.gov is the U.S. government's official web portal to all federal, state and local government web resources and services.